Time;durP1;ratioP1;P1;durP2;ratioP2;P2;SDS_P1;SDS_P2;PMS_P1;PMS_P2;Temp;Humidity;BMP_temperature;BMP_pressure;BME280_temperature;BME280_humidity;BME280_pressure;Samples;Min_cycle;Max_cycle;Signal;HPM_P1;HPM_P2
2022/11/15 00:00:06;;;;;;;21.27;13.10;;;8.10;99.90;;;;;;5024037;28;20116;-79
2022/11/15 00:02:32;;;;;;;19.05;11.35;;;8.10;99.90;;;;;;5011048;28;20049;-80
2022/11/15 00:04:58;;;;;;;14.57;10.88;;;8.10;99.90;;;;;;5008417;28;20042;-79
2022/11/15 00:07:23;;;;;;;19.02;12.60;;;8.10;99.90;;;;;;5016292;28;20068;-79
2022/11/15 00:09:49;;;;;;;17.30;12.18;;;8.10;99.90;;;;;;5025050;28;20140;-79
2022/11/15 00:12:14;;;;;;;14.18;10.25;;;8.10;99.90;;;;;;5023333;28;20127;-79
2022/11/15 00:14:40;;;;;;;14.65;11.25;;;8.10;99.90;;;;;;5006302;28;20092;-79
2022/11/15 00:17:05;;;;;;;23.00;13.35;;;8.10;99.90;;;;;;5004841;28;20104;-80
2022/11/15 00:19:31;;;;;;;19.30;11.02;;;8.10;99.90;;;;;;4989157;28;20065;-80
2022/11/15 00:21:56;;;;;;;13.80;10.85;;;8.10;99.90;;;;;;5004913;28;20074;-79
2022/11/15 00:24:22;;;;;;;16.50;11.23;;;8.10;99.90;;;;;;5006228;28;20041;-79
2022/11/15 00:26:48;;;;;;;16.65;11.82;;;8.10;99.90;;;;;;4990667;28;20891;-79
2022/11/15 00:29:13;;;;;;;12.25;8.52;;;8.10;99.90;;;;;;4986313;28;20129;-79
2022/11/15 00:31:39;;;;;;;15.02;10.02;;;8.10;99.90;;;;;;5000222;28;20038;-79
2022/11/15 00:34:04;;;;;;;13.32;9.85;;;8.10;99.90;;;;;;5006039;28;20125;-79
2022/11/15 00:36:33;;;;;;;13.05;9.90;;;8.10;99.90;;;;;;5005228;28;20503;-79
2022/11/15 00:38:58;;;;;;;16.35;10.43;;;8.10;99.90;;;;;;5005350;28;20536;-80
2022/11/15 00:41:24;;;;;;;18.08;11.43;;;8.10;99.90;;;;;;5006529;28;20042;-79
2022/11/15 00:43:49;;;;;;;15.52;11.80;;;8.10;99.90;;;;;;5004793;28;20045;-79
2022/11/15 00:46:15;;;;;;;21.40;12.55;;;8.10;99.90;;;;;;5004411;28;20492;-79
2022/11/15 00:48:41;;;;;;;16.73;10.77;;;8.10;99.90;;;;;;4988560;28;20038;-79
2022/11/15 00:51:06;;;;;;;17.77;11.13;;;8.10;99.90;;;;;;5003699;28;20087;-80
2022/11/15 00:53:32;;;;;;;17.40;11.18;;;8.10;99.90;;;;;;5005773;28;20050;-79
2022/11/15 00:55:58;;;;;;;17.90;10.82;;;8.10;99.90;;;;;;5011167;28;20399;-79
2022/11/15 00:58:23;;;;;;;16.25;11.55;;;8.00;99.90;;;;;;5023378;28;20045;-79
2022/11/15 01:00:49;;;;;;;19.05;12.05;;;8.00;99.90;;;;;;5024868;28;20508;-79
2022/11/15 01:03:15;;;;;;;12.50;11.02;;;8.00;99.90;;;;;;5021311;28;20620;-80
2022/11/15 01:05:40;;;;;;;14.90;10.95;;;8.00;99.90;;;;;;5004930;28;20125;-79
2022/11/15 01:08:06;;;;;;;15.63;12.30;;;8.00;99.90;;;;;;5005234;28;20552;-79
2022/11/15 01:10:31;;;;;;;20.13;12.43;;;8.00;99.90;;;;;;5005394;28;20050;-80
2022/11/15 01:12:57;;;;;;;19.58;13.18;;;8.00;99.90;;;;;;4988012;28;20045;-79
2022/11/15 01:15:23;;;;;;;18.38;11.60;;;8.00;99.90;;;;;;5004977;28;20073;-79
2022/11/15 01:17:48;;;;;;;16.58;11.10;;;8.00;99.90;;;;;;5005022;28;20103;-79
2022/11/15 01:20:14;;;;;;;13.45;9.88;;;8.00;99.90;;;;;;5005482;28;20053;-79
2022/11/15 01:22:39;;;;;;;15.68;10.68;;;8.00;99.90;;;;;;5004593;28;20042;-79
2022/11/15 01:25:05;;;;;;;13.95;10.80;;;8.00;99.90;;;;;;5003327;28;20053;-79
2022/11/15 01:27:30;;;;;;;14.80;9.63;;;8.00;99.90;;;;;;5003630;28;20053;-80
2022/11/15 01:29:56;;;;;;;17.73;12.73;;;7.90;99.90;;;;;;5004296;28;20484;-78
2022/11/15 01:32:22;;;;;;;15.90;11.52;;;7.90;99.90;;;;;;5003731;28;20046;-79
2022/11/15 01:34:47;;;;;;;13.57;11.85;;;7.90;99.90;;;;;;5005152;28;20129;-79
2022/11/15 01:37:13;;;;;;;23.65;14.20;;;7.90;99.90;;;;;;5002316;28;20046;-79
2022/11/15 01:39:38;;;;;;;19.60;12.77;;;7.90;99.90;;;;;;5003651;28;20070;-79
2022/11/15 01:42:04;;;;;;;17.95;13.00;;;7.80;99.90;;;;;;5004793;28;20046;-80
2022/11/15 01:44:49;;;;;;;13.07;11.50;;;7.80;99.90;;;;;;5004524;28;20049;-80
2022/11/15 01:47:27;;;;;;;15.52;11.27;;;7.80;99.90;;;;;;5004605;28;20046;-79
2022/11/15 01:50:15;;;;;;;18.17;10.57;;;7.70;99.90;;;;;;4989478;28;20436;-79
2022/11/15 01:52:41;;;;;;;17.60;12.57;;;7.70;99.90;;;;;;5005570;28;20053;-79
2022/11/15 01:55:21;;;;;;;17.73;13.73;;;7.70;99.90;;;;;;5024128;28;20388;-79
2022/11/15 01:57:50;;;;;;;24.58;14.38;;;7.70;99.90;;;;;;5024082;28;20072;-79
2022/11/15 02:00:16;;;;;;;22.73;13.68;;;7.70;99.90;;;;;;5006473;28;20125;-79
2022/11/15 02:02:42;;;;;;;18.42;12.82;;;7.70;99.90;;;;;;5006659;28;20087;-80
2022/11/15 02:05:08;;;;;;;22.77;13.55;;;7.70;99.90;;;;;;5022235;28;20061;-79
2022/11/15 02:07:35;;;;;;;25.27;13.93;;;7.70;99.90;;;;;;5021723;28;20057;-79
2022/11/15 02:10:19;;;;;;;21.58;12.63;;;7.70;99.90;;;;;;5021646;28;20120;-80
2022/11/15 02:12:46;;;;;;;21.45;10.63;;;7.60;99.90;;;;;;5023407;28;20041;-79
2022/11/15 02:15:12;;;;;;;18.92;10.90;;;7.60;99.90;;;;;;5005852;28;20487;-79
2022/11/15 02:17:58;;;;;;;17.40;13.30;;;7.50;99.90;;;;;;5022691;28;20045;-80
2022/11/15 02:20:56;;;;;;;19.83;13.52;;;7.50;99.90;;;;;;5022569;28;20103;-79
2022/11/15 02:23:34;;;;;;;19.05;10.85;;;7.50;99.90;;;;;;5022031;28;20042;-79
2022/11/15 02:26:29;;;;;;;20.90;11.77;;;7.50;99.90;;;;;;5014472;28;20512;-80
2022/11/15 02:29:32;;;;;;;19.52;12.13;;;7.50;99.90;;;;;;5004726;28;20053;-79
2022/11/15 02:32:00;;;;;;;;;;;7.50;99.90;;;;;;5003129;28;20099;-79
2022/11/15 02:34:38;;;;;;;15.98;11.73;;;7.40;99.90;;;;;;5002978;28;19928;-79
2022/11/15 02:37:20;;;;;;;27.35;15.50;;;7.40;99.90;;;;;;5001700;28;20049;-79
2022/11/15 02:40:00;;;;;;;15.70;10.30;;;7.40;99.90;;;;;;5003720;28;20053;-79
2022/11/15 02:45:22;;;;;;;18.15;12.38;;;7.40;99.90;;;;;;5002371;28;20060;-79
2022/11/15 02:47:52;;;;;;;19.38;12.23;;;7.40;99.90;;;;;;5002635;28;20045;-79
2022/11/15 02:50:22;;;;;;;20.02;13.65;;;7.50;99.90;;;;;;5003866;28;20140;-80
2022/11/15 02:52:48;;;;;;;24.77;13.18;;;7.40;99.90;;;;;;4984418;28;20122;-79
2022/11/15 02:55:38;;;;;;;26.70;13.27;;;7.40;99.90;;;;;;4983775;28;20034;-80
2022/11/15 02:58:33;;;;;;;19.45;12.63;;;7.50;99.90;;;;;;4982491;28;20046;-79
2022/11/15 03:01:11;;;;;;;24.00;12.85;;;7.50;99.90;;;;;;4984069;28;20070;-80
2022/11/15 03:03:46;;;;;;;21.42;11.93;;;7.40;99.90;;;;;;4982844;28;20054;-79
2022/11/15 03:06:17;;;;;;;25.00;13.35;;;7.40;99.90;;;;;;4983020;28;20046;-79
2022/11/15 03:08:55;;;;;;;20.92;13.10;;;7.40;99.90;;;;;;4982780;28;20116;-79
2022/11/15 03:11:23;;;;;;;28.13;16.02;;;7.40;99.90;;;;;;4983724;28;20100;-79
2022/11/15 03:14:00;;;;;;;16.27;12.15;;;7.40;99.90;;;;;;4966546;28;20065;-79
2022/11/15 03:16:47;;;;;;;26.52;13.30;;;7.50;99.90;;;;;;4983309;28;20054;-80
2022/11/15 03:19:36;;;;;;;24.27;16.65;;;7.50;99.90;;;;;;4984461;28;20104;-79
2022/11/15 03:22:07;;;;;;;21.52;15.32;;;7.50;99.90;;;;;;5001621;28;20683;-79
2022/11/15 03:24:38;;;;;;;22.58;15.05;;;7.50;99.90;;;;;;5025828;28;20132;-80
2022/11/15 03:27:06;;;;;;;25.90;15.63;;;7.50;99.90;;;;;;4999020;28;20037;-80
2022/11/15 03:29:45;;;;;;;30.38;16.45;;;7.50;99.90;;;;;;5027188;28;20412;-80
2022/11/15 03:32:17;;;;;;;39.63;18.48;;;7.50;99.90;;;;;;5025662;28;20092;-79
2022/11/15 03:34:46;;;;;;;;;;;7.50;99.90;;;;;;5026099;28;20042;-79
2022/11/15 03:37:14;;;;;;;28.02;14.05;;;7.50;99.90;;;;;;5025327;28;19928;-79
2022/11/15 03:39:40;;;;;;;24.00;15.35;;;7.50;99.90;;;;;;5026139;28;20045;-79
2022/11/15 03:42:30;;;;;;;28.13;15.85;;;7.50;99.90;;;;;;5026532;28;20068;-79
2022/11/15 03:45:02;;;;;;;37.42;18.35;;;7.50;99.90;;;;;;5017928;28;20115;-79
2022/11/15 03:47:31;;;;;;;;;;;7.60;99.90;;;;;;5007714;28;20121;-79
2022/11/15 03:50:10;;;;;;;23.30;16.10;;;7.60;99.90;;;;;;5006373;28;19967;-79
2022/11/15 03:52:36;;;;;;;34.90;18.92;;;7.60;99.90;;;;;;4989351;28;20117;-79
2022/11/15 03:55:04;;;;;;;37.40;19.27;;;7.60;99.90;;;;;;5006526;28;20053;-80
2022/11/15 03:57:30;;;;;;;27.65;16.48;;;7.60;99.90;;;;;;5018769;28;20052;-79
2022/11/15 03:59:56;;;;;;;33.95;17.65;;;7.60;99.90;;;;;;5026830;28;20049;-79
2022/11/15 04:02:21;;;;;;;39.28;18.10;;;7.60;99.90;;;;;;5025130;28;20420;-79
2022/11/15 04:04:47;;;;;;;32.42;18.13;;;7.60;99.90;;;;;;5015188;28;20145;-79
2022/11/15 04:07:12;;;;;;;36.85;17.23;;;7.60;99.90;;;;;;5005758;28;20612;-79
2022/11/15 04:10:01;;;;;;;40.75;19.50;;;7.60;99.90;;;;;;5006124;28;20095;-79
2022/11/15 04:12:33;;;;;;;33.25;18.25;;;7.60;99.90;;;;;;5005556;28;20532;-79
2022/11/15 04:15:19;;;;;;;29.75;17.70;;;7.70;99.90;;;;;;5006494;28;20052;-81
2022/11/15 04:17:53;;;;;;;30.70;20.70;;;7.70;99.90;;;;;;4988526;28;20140;-79
2022/11/15 04:26:10;;;;;;;36.38;19.38;;;7.70;99.90;;;;;;4996372;28;20091;-80
2022/11/15 04:29:33;;;;;;;26.27;15.45;;;7.70;99.90;;;;;;4985603;28;20047;-79
2022/11/15 04:31:22;;;;;;;34.65;17.95;;;7.70;99.90;;;;;;4985074;28;20468;-79
2022/11/15 04:33:47;;;;;;;28.13;20.77;;;7.80;99.90;;;;;;5001446;28;20053;-80
2022/11/15 04:38:57;;;;;;;29.77;17.55;;;7.80;99.90;;;;;;5024871;28;20098;-79
2022/11/15 04:41:23;;;;;;;27.08;16.73;;;7.80;99.90;;;;;;5025052;28;20060;-79
2022/11/15 04:43:48;;;;;;;32.40;18.23;;;7.80;99.90;;;;;;5023781;28;20045;-79
2022/11/15 04:46:14;;;;;;;28.45;18.33;;;7.80;99.90;;;;;;4988327;28;20050;-79
2022/11/15 04:48:39;;;;;;;28.25;15.85;;;7.80;99.90;;;;;;4988515;28;20089;-79
2022/11/15 04:51:05;;;;;;;30.95;16.67;;;7.90;99.90;;;;;;5004870;28;20077;-79
2022/11/15 04:53:31;;;;;;;35.50;16.77;;;7.90;99.90;;;;;;5005255;28;20039;-80
2022/11/15 04:55:56;;;;;;;33.03;16.67;;;7.90;99.90;;;;;;5024953;28;20133;-79
2022/11/15 04:58:22;;;;;;;36.20;14.98;;;7.90;99.90;;;;;;5023979;28;20057;-79
2022/11/15 05:00:47;;;;;;;26.40;16.85;;;7.90;99.90;;;;;;5021028;28;20061;-79
2022/11/15 05:05:58;;;;;;;24.92;14.38;;;7.90;99.90;;;;;;5003969;28;20286;-79
2022/11/15 05:08:24;;;;;;;44.97;18.77;;;8.00;99.90;;;;;;5006032;28;20049;-79
2022/11/15 05:10:50;;;;;;;36.92;17.58;;;8.00;99.90;;;;;;5005220;28;20084;-79
2022/11/15 05:13:15;;;;;;;33.53;17.85;;;8.00;99.90;;;;;;5003798;28;20104;-79
2022/11/15 05:15:41;;;;;;;32.67;17.90;;;8.00;99.90;;;;;;5005424;28;20120;-79
2022/11/15 05:18:07;;;;;;;34.75;17.88;;;8.00;99.90;;;;;;5004283;28;20503;-79
2022/11/15 05:20:32;;;;;;;28.33;17.40;;;8.00;99.90;;;;;;5003302;28;20042;-79
2022/11/15 05:22:58;;;;;;;43.22;20.75;;;8.00;99.90;;;;;;5005675;28;20038;-79
2022/11/15 05:25:24;;;;;;;39.95;18.08;;;8.00;99.90;;;;;;4999728;28;20069;-79
2022/11/15 05:27:49;;;;;;;37.75;18.40;;;8.10;99.90;;;;;;4985761;28;20045;-79
2022/11/15 05:30:15;;;;;;;39.28;19.20;;;8.10;99.90;;;;;;4968003;28;20125;-79
2022/11/15 05:32:42;;;;;;;40.25;21.63;;;8.10;99.90;;;;;;4985594;28;20482;-79
2022/11/15 05:35:12;;;;;;;33.28;19.75;;;8.20;99.90;;;;;;4982877;28;20054;-79
2022/11/15 05:37:37;;;;;;;42.05;22.55;;;8.20;99.90;;;;;;4985532;28;20517;-79
2022/11/15 05:40:03;;;;;;;35.83;19.67;;;8.20;99.90;;;;;;4984184;28;20133;-79
2022/11/15 05:42:30;;;;;;;53.70;26.75;;;8.20;99.90;;;;;;4985297;28;20073;-80
2022/11/15 05:44:57;;;;;;;43.53;21.02;;;8.20;99.90;;;;;;5007933;28;20128;-79
2022/11/15 05:47:27;;;;;;;45.95;24.08;;;8.30;99.90;;;;;;5006834;28;20544;-79
2022/11/15 05:49:53;;;;;;;39.40;22.05;;;8.30;99.90;;;;;;5007652;28;20042;-80
2022/11/15 05:52:23;;;;;;;38.72;23.48;;;8.30;99.90;;;;;;5003271;28;20046;-79
2022/11/15 05:54:49;;;;;;;48.55;25.20;;;8.30;99.90;;;;;;5003840;28;20053;-79
2022/11/15 05:57:15;;;;;;;48.35;24.92;;;8.40;99.90;;;;;;5002601;28;20045;-79
2022/11/15 05:59:43;;;;;;;43.53;24.38;;;8.40;99.90;;;;;;5003324;28;20134;-79
2022/11/15 06:02:09;;;;;;;45.85;24.52;;;8.40;99.90;;;;;;4995166;28;20124;-79
2022/11/15 06:04:35;;;;;;;43.13;23.73;;;8.50;99.90;;;;;;5024448;28;20056;-79
2022/11/15 06:07:00;;;;;;;42.65;25.60;;;8.50;99.90;;;;;;5022895;28;20034;-80
2022/11/15 06:09:26;;;;;;;55.67;27.40;;;8.50;99.90;;;;;;5023053;28;20060;-79
2022/11/15 06:11:52;;;;;;;50.15;27.85;;;8.50;99.90;;;;;;5011405;28;20069;-79
2022/11/15 06:14:17;;;;;;;51.25;25.50;;;8.50;99.90;;;;;;5004200;28;20141;-78
2022/11/15 06:16:43;;;;;;;46.42;26.63;;;8.60;99.90;;;;;;5004061;28;20084;-78
2022/11/15 06:19:09;;;;;;;49.50;25.48;;;8.60;99.90;;;;;;4986941;28;20407;-79
2022/11/15 06:21:35;;;;;;;54.08;24.08;;;8.60;99.90;;;;;;5001812;28;20366;-79
2022/11/15 06:24:01;;;;;;;40.22;22.73;;;8.70;99.90;;;;;;4986084;28;20447;-79
2022/11/15 06:26:26;;;;;;;46.33;24.02;;;8.70;99.90;;;;;;5001899;28;20511;-78
2022/11/15 06:28:52;;;;;;;48.97;25.25;;;8.70;99.90;;;;;;5002955;28;20397;-80
2022/11/15 06:31:17;;;;;;;48.38;25.20;;;8.70;99.90;;;;;;5004966;28;20045;-79
2022/11/15 06:33:43;;;;;;;49.60;26.73;;;8.70;99.90;;;;;;4989518;28;20046;-78
2022/11/15 06:36:13;;;;;;;45.95;23.98;;;8.80;99.90;;;;;;5005385;28;20073;-79
2022/11/15 06:38:39;;;;;;;58.28;27.67;;;8.80;99.90;;;;;;5013812;28;20053;-79
2022/11/15 06:41:07;;;;;;;53.75;27.13;;;8.80;99.90;;;;;;5006178;28;20037;-78
2022/11/15 06:43:34;;;;;;;44.42;26.52;;;8.80;99.90;;;;;;5004499;28;20041;-78
2022/11/15 06:46:01;;;;;;;54.25;25.85;;;8.80;99.90;;;;;;5004862;28;20064;-78
2022/11/15 06:48:27;;;;;;;46.08;27.08;;;8.80;99.90;;;;;;5003687;28;20042;-76
2022/11/15 06:50:54;;;;;;;55.42;27.38;;;8.90;99.90;;;;;;4997390;28;20488;-79
2022/11/15 06:53:20;;;;;;;56.47;30.92;;;8.90;99.90;;;;;;5007717;28;20049;-79
2022/11/15 06:55:45;;;;;;;50.65;28.63;;;8.90;99.90;;;;;;5020454;28;20080;-79
2022/11/15 06:58:11;;;;;;;59.55;30.80;;;8.90;99.90;;;;;;5019422;28;20503;-79
2022/11/15 07:00:37;;;;;;;60.22;30.60;;;8.90;99.90;;;;;;5003886;28;20077;-79
2022/11/15 07:03:03;;;;;;;52.90;28.83;;;9.00;99.90;;;;;;5016041;28;20052;-79
2022/11/15 07:05:29;;;;;;;50.22;29.63;;;9.00;99.90;;;;;;5006578;28;20050;-79
2022/11/15 07:07:56;;;;;;;63.15;32.80;;;9.00;99.90;;;;;;5014147;28;20042;-79
2022/11/15 07:10:24;;;;;;;57.03;33.13;;;9.00;99.90;;;;;;5009632;28;20058;-79
2022/11/15 07:12:50;;;;;;;70.40;36.15;;;9.10;99.90;;;;;;4992152;28;20511;-80
2022/11/15 07:15:17;;;;;;;54.75;31.35;;;9.10;99.90;;;;;;5006030;28;20555;-80
2022/11/15 07:17:43;;;;;;;64.13;33.72;;;9.10;99.90;;;;;;5004441;28;20156;-81
2022/11/15 07:20:09;;;;;;;77.85;35.35;;;9.10;99.90;;;;;;5011154;28;20597;-78
2022/11/15 07:22:35;;;;;;;61.17;32.17;;;9.20;99.90;;;;;;5025672;28;20037;-77
2022/11/15 07:25:00;;;;;;;77.78;35.60;;;9.20;99.90;;;;;;5013428;28;20064;-77
2022/11/15 07:27:26;;;;;;;75.10;35.78;;;9.20;99.90;;;;;;5013160;28;20038;-76
2022/11/15 07:29:51;;;;;;;65.82;37.05;;;9.20;99.90;;;;;;5006909;28;20046;-77
2022/11/15 07:32:17;;;;;;;67.50;36.95;;;9.30;99.90;;;;;;5004714;28;20034;-79
2022/11/15 07:34:42;;;;;;;64.40;33.88;;;9.30;99.90;;;;;;5005062;28;20124;-76
2022/11/15 07:37:08;;;;;;;67.20;35.33;;;9.30;99.90;;;;;;5006910;28;20068;-75
2022/11/15 07:39:34;;;;;;;70.68;33.58;;;9.30;99.90;;;;;;5007185;28;20046;-77
2022/11/15 07:44:44;;;;;;;67.93;33.00;;;9.40;99.90;;;;;;5007146;28;20635;-77
2022/11/15 07:47:10;;;;;;;65.28;35.72;;;9.40;99.90;;;;;;5003244;28;20042;-76
2022/11/15 07:49:35;;;;;;;60.38;32.42;;;9.40;99.90;;;;;;4989930;28;20029;-76
2022/11/15 07:52:01;;;;;;;53.88;31.90;;;9.40;99.90;;;;;;5009741;28;20050;-79
2022/11/15 07:54:26;;;;;;;72.68;32.85;;;9.40;99.90;;;;;;5006977;28;20117;-78
2022/11/15 07:56:52;;;;;;;77.55;30.55;;;9.40;99.90;;;;;;5005041;28;20041;-76
2022/11/15 07:59:19;;;;;;;65.28;32.90;;;9.50;99.90;;;;;;5006945;28;20042;-77
2022/11/15 08:01:44;;;;;;;64.53;32.67;;;9.50;99.90;;;;;;5006080;28;20038;-76
2022/11/15 08:04:11;;;;;;;55.67;31.17;;;9.60;99.90;;;;;;5005876;28;20547;-78
2022/11/15 08:06:37;;;;;;;59.88;30.13;;;9.60;99.90;;;;;;5005617;28;20041;-76
2022/11/15 08:09:02;;;;;;;58.92;31.10;;;9.60;99.90;;;;;;5005384;28;20057;-77
2022/11/15 08:11:28;;;;;;;53.22;29.23;;;9.60;99.90;;;;;;5007077;28;20089;-76
2022/11/15 08:13:54;;;;;;;56.35;30.15;;;9.60;99.90;;;;;;5006600;28;20045;-79
2022/11/15 08:16:19;;;;;;;57.03;29.50;;;9.60;99.90;;;;;;5004329;28;20533;-78
2022/11/15 08:18:45;;;;;;;71.90;34.97;;;9.60;99.90;;;;;;5006436;28;20551;-76
2022/11/15 08:21:14;;;;;;;59.08;29.45;;;9.70;99.90;;;;;;5004545;28;20449;-76
2022/11/15 08:23:40;;;;;;;61.13;29.98;;;9.70;99.90;;;;;;5006496;28;20527;-78
2022/11/15 08:26:05;;;;;;;63.90;33.20;;;9.70;99.90;;;;;;5005621;28;20129;-78
2022/11/15 08:28:32;;;;;;;52.38;28.75;;;9.70;99.90;;;;;;5006085;28;20061;-77
2022/11/15 08:30:57;;;;;;;55.25;30.38;;;9.80;99.90;;;;;;5005123;28;20743;-76
2022/11/15 08:33:23;;;;;;;54.20;31.65;;;9.70;99.90;;;;;;4988187;28;20117;-78
2022/11/15 08:35:48;;;;;;;64.93;29.58;;;9.80;99.90;;;;;;5005141;28;20098;-79
2022/11/15 08:38:14;;;;;;;51.75;28.85;;;9.80;99.90;;;;;;4987746;28;20100;-76
2022/11/15 08:40:40;;;;;;;54.28;29.35;;;9.90;99.90;;;;;;5006184;28;20057;-77
2022/11/15 08:43:05;;;;;;;56.33;29.35;;;9.90;99.90;;;;;;5006186;28;20538;-77
2022/11/15 08:45:33;;;;;;;52.55;32.78;;;10.00;99.90;;;;;;5005469;28;20042;-77
2022/11/15 08:48:01;;;;;;;61.33;32.10;;;10.10;99.90;;;;;;5003936;28;20046;-79
2022/11/15 08:50:26;;;;;;;63.55;31.13;;;10.10;99.90;;;;;;5005003;28;20049;-76
2022/11/15 08:52:52;;;;;;;58.75;29.02;;;10.20;99.90;;;;;;5004711;28;20049;-77
2022/11/15 08:55:18;;;;;;;47.50;27.83;;;10.20;99.90;;;;;;5004052;28;20045;-78
2022/11/15 08:57:43;;;;;;;53.70;27.85;;;10.20;99.90;;;;;;5004689;28;20594;-77
2022/11/15 09:00:11;;;;;;;49.22;29.02;;;10.20;99.90;;;;;;5003699;28;20045;-77
2022/11/15 09:02:38;;;;;;;55.72;26.50;;;10.20;99.90;;;;;;5005409;28;20045;-76
2022/11/15 09:05:04;;;;;;;49.97;27.48;;;10.30;99.90;;;;;;5003614;28;20121;-78
2022/11/15 09:07:31;;;;;;;55.13;26.83;;;10.20;99.90;;;;;;5003262;28;20042;-77
2022/11/15 09:09:57;;;;;;;41.05;25.00;;;10.30;99.90;;;;;;5004949;28;20061;-76
2022/11/15 09:12:23;;;;;;;47.58;26.17;;;10.30;99.90;;;;;;5003774;28;20054;-76
2022/11/15 09:14:49;;;;;;;52.83;26.85;;;10.30;99.90;;;;;;5005480;28;20112;-77
2022/11/15 09:17:14;;;;;;;49.13;24.77;;;10.30;99.90;;;;;;5004685;28;20536;-78
2022/11/15 09:19:40;;;;;;;38.40;25.65;;;10.40;99.90;;;;;;5003697;28;20044;-77
2022/11/15 09:22:07;;;;;;;37.67;22.30;;;10.30;99.90;;;;;;5003856;28;20120;-77
2022/11/15 09:24:33;;;;;;;49.33;24.25;;;10.30;99.90;;;;;;5005008;28;20050;-78
2022/11/15 09:26:59;;;;;;;36.90;21.15;;;10.40;99.90;;;;;;5004898;28;20037;-77
2022/11/15 09:29:25;;;;;;;37.35;23.05;;;10.40;99.90;;;;;;5005403;28;20627;-77
2022/11/15 09:31:53;;;;;;;36.50;25.02;;;10.40;99.90;;;;;;5005292;28;20050;-76
2022/11/15 09:34:19;;;;;;;35.05;22.08;;;10.40;99.90;;;;;;5003516;28;20051;-78
2022/11/15 09:36:45;;;;;;;35.97;20.52;;;10.50;99.90;;;;;;5004731;28;20046;-77
2022/11/15 09:39:10;;;;;;;32.03;20.52;;;10.50;99.90;;;;;;5004923;28;20532;-76
2022/11/15 09:41:48;;;;;;;38.70;21.98;;;10.50;99.90;;;;;;5006235;28;20133;-76
2022/11/15 09:44:32;;;;;;;49.97;21.70;;;10.50;99.90;;;;;;5004546;28;20054;-77
2022/11/15 09:47:22;;;;;;;27.67;18.00;;;10.50;99.90;;;;;;5003855;28;20054;-77
2022/11/15 09:50:01;;;;;;;35.83;19.67;;;10.50;99.90;;;;;;5001904;28;20489;-76
2022/11/15 09:52:27;;;;;;;32.10;19.85;;;10.50;99.90;;;;;;5005400;28;20046;-76
2022/11/15 09:54:54;;;;;;;37.25;20.63;;;10.50;99.90;;;;;;5004274;28;20487;-77
2022/11/15 09:57:34;;;;;;;32.65;18.80;;;10.50;99.90;;;;;;5004386;28;20072;-78
2022/11/15 10:00:15;;;;;;;35.25;20.23;;;10.50;99.90;;;;;;5003965;28;20133;-77
2022/11/15 10:03:11;;;;;;;30.17;19.52;;;10.50;99.90;;;;;;5003691;28;20435;-76
2022/11/15 10:05:43;;;;;;;38.28;19.05;;;10.50;99.90;;;;;;5003694;28;20049;-78
2022/11/15 10:08:25;;;;;;;28.17;20.60;;;10.50;99.90;;;;;;5004616;28;20042;-77
2022/11/15 10:10:56;;;;;;;30.60;18.65;;;10.50;99.90;;;;;;5003935;28;20289;-78
2022/11/15 10:13:35;;;;;;;37.95;19.98;;;10.60;99.90;;;;;;5003927;28;20046;-77
2022/11/15 10:16:24;;;;;;;30.55;19.55;;;10.60;99.90;;;;;;5002538;28;20052;-78
2022/11/15 10:19:03;;;;;;;37.13;19.95;;;10.70;99.90;;;;;;5001621;28;20042;-77
2022/11/15 10:22:12;;;;;;;37.88;22.38;;;10.70;99.90;;;;;;5001582;28;20392;-79
2022/11/15 10:24:42;;;;;;;28.88;18.67;;;10.80;99.90;;;;;;5005308;28;20100;-79
2022/11/15 10:27:11;;;;;;;29.15;17.38;;;10.80;99.90;;;;;;5006817;28;20068;-80
2022/11/15 10:29:49;;;;;;;26.77;19.35;;;10.90;99.90;;;;;;5003732;28;20053;-78
2022/11/15 10:32:17;;;;;;;30.92;21.20;;;10.90;99.90;;;;;;4997813;28;20050;-77
2022/11/15 10:34:43;;;;;;;24.65;17.45;;;10.90;99.90;;;;;;5002775;28;20096;-79
2022/11/15 10:37:09;;;;;;;30.75;18.42;;;11.00;99.90;;;;;;5014564;28;20604;-78
2022/11/15 10:39:35;;;;;;;26.27;17.10;;;11.00;99.90;;;;;;5004368;28;20046;-78
2022/11/15 10:42:36;;;;;;;26.75;17.80;;;11.00;99.90;;;;;;5002927;28;20053;-77
2022/11/15 10:45:02;;;;;;;26.85;15.45;;;11.10;99.90;;;;;;5000491;28;20146;-79
2022/11/15 10:47:30;;;;;;;28.67;19.80;;;11.10;99.90;;;;;;5007636;28;20077;-78
2022/11/15 10:50:28;;;;;;;27.50;17.08;;;11.10;99.90;;;;;;5014723;28;20492;-77
2022/11/15 10:52:54;;;;;;;19.77;14.38;;;11.10;99.90;;;;;;5023252;28;20088;-77
2022/11/15 10:55:27;;;;;;;25.42;15.73;;;11.10;99.90;;;;;;5017351;28;20483;-78
2022/11/15 10:58:04;;;;;;;25.98;16.70;;;11.10;99.90;;;;;;5003851;28;20038;-77
2022/11/15 11:00:34;;;;;;;20.33;13.90;;;11.20;99.90;;;;;;5003239;28;20038;-77
2022/11/15 11:03:03;;;;;;;23.05;14.05;;;11.20;99.90;;;;;;5000867;28;20042;-77
2022/11/15 11:05:38;;;;;;;24.80;15.25;;;11.20;99.90;;;;;;5001584;28;20053;-78
2022/11/15 11:08:15;;;;;;;22.90;13.88;;;11.20;99.90;;;;;;5001117;28;20128;-78
2022/11/15 11:10:56;;;;;;;25.25;14.57;;;11.20;99.90;;;;;;5002723;28;20053;-77
2022/11/15 11:13:24;;;;;;;21.25;13.18;;;11.30;99.90;;;;;;5002192;28;20057;-78
2022/11/15 11:16:17;;;;;;;21.77;13.32;;;11.30;99.90;;;;;;5003627;28;20045;-77
2022/11/15 11:19:13;;;;;;;17.35;12.32;;;11.30;99.90;;;;;;5005034;28;20061;-77
2022/11/15 11:21:59;;;;;;;19.77;11.75;;;11.40;99.90;;;;;;5001952;28;20467;-78
2022/11/15 11:24:49;;;;;;;21.30;13.82;;;11.40;99.90;;;;;;5002510;28;20044;-78
2022/11/15 11:27:26;;;;;;;18.02;12.50;;;11.40;99.90;;;;;;5003232;28;20165;-79
2022/11/15 11:30:00;;;;;;;18.88;12.95;;;11.40;99.90;;;;;;4989363;28;20041;-79
2022/11/15 11:32:53;;;;;;;17.98;13.00;;;11.40;99.90;;;;;;5019053;28;20065;-80
2022/11/15 11:35:30;;;;;;;14.07;9.98;;;11.40;99.90;;;;;;5001341;28;20057;-78
2022/11/15 11:38:11;;;;;;;14.70;10.77;;;11.40;99.90;;;;;;5003528;28;20034;-77
2022/11/15 11:40:58;;;;;;;17.30;12.18;;;11.50;99.90;;;;;;4990983;28;20082;-78
2022/11/15 11:43:57;;;;;;;16.73;9.85;;;11.50;99.90;;;;;;5004066;28;20046;-77
2022/11/15 11:46:52;;;;;;;17.15;11.55;;;11.50;99.90;;;;;;5005768;28;20050;-77
2022/11/15 11:49:24;;;;;;;11.77;9.27;;;11.50;99.90;;;;;;5004290;28;20566;-77
2022/11/15 11:51:56;;;;;;;;;;;11.50;99.90;;;;;;5007851;28;20044;-78
2022/11/15 11:54:45;;;;;;;9.93;8.57;;;11.50;99.90;;;;;;4990161;28;20434;-77
2022/11/15 11:57:39;;;;;;;10.00;8.98;;;11.50;99.90;;;;;;5006335;28;20033;-76
2022/11/15 12:00:27;;;;;;;13.50;8.35;;;11.50;99.90;;;;;;5001065;28;20054;-77
2022/11/15 12:03:07;;;;;;;10.13;8.23;;;11.60;99.90;;;;;;5006363;28;20377;-77
2022/11/15 12:06:00;;;;;;;12.07;8.82;;;11.60;99.90;;;;;;5004535;28;20071;-77
2022/11/15 12:08:53;;;;;;;12.07;7.65;;;11.60;99.90;;;;;;5008597;28;20084;-78
2022/11/15 12:11:37;;;;;;;13.35;8.60;;;11.70;99.90;;;;;;5004010;28;20439;-78
2022/11/15 12:14:19;;;;;;;11.40;7.63;;;11.70;99.90;;;;;;4996232;28;20072;-77
2022/11/15 12:16:44;;;;;;;8.93;7.53;;;11.70;99.90;;;;;;4986638;28;20099;-74
2022/11/15 12:19:10;;;;;;;10.73;7.60;;;11.70;99.90;;;;;;5005286;28;20120;-76
2022/11/15 12:21:55;;;;;;;8.68;7.15;;;11.80;99.90;;;;;;5004328;28;20041;-77
2022/11/15 12:24:29;;;;;;;14.35;8.85;;;11.80;99.90;;;;;;5010758;28;20108;-76
2022/11/15 12:27:16;;;;;;;15.00;8.02;;;11.80;99.90;;;;;;4987229;28;20088;-78
2022/11/15 12:29:53;;;;;;;10.80;7.80;;;11.80;99.90;;;;;;4987856;28;20388;-77
2022/11/15 12:32:32;;;;;;;12.82;8.13;;;11.80;99.90;;;;;;5003311;28;20100;-77
2022/11/15 12:35:00;;;;;;;11.60;6.95;;;11.80;99.90;;;;;;5003977;28;20554;-77
2022/11/15 12:37:34;;;;;;;11.60;6.93;;;11.90;99.90;;;;;;5005661;28;20044;-76
2022/11/15 12:40:05;;;;;;;7.28;6.50;;;12.00;99.90;;;;;;4987758;28;20102;-75
2022/11/15 12:42:30;;;;;;;7.82;5.57;;;12.00;99.90;;;;;;5005282;28;20037;-77
2022/11/15 12:44:58;;;;;;;5.22;3.95;;;12.00;99.90;;;;;;5005171;28;20481;-80
2022/11/15 12:47:26;;;;;;;8.18;3.85;;;12.00;99.90;;;;;;5004748;28;20050;-80
2022/11/15 12:49:52;;;;;;;6.18;3.78;;;12.10;99.90;;;;;;5002551;28;20045;-78
2022/11/15 12:52:19;;;;;;;14.48;3.63;;;12.10;99.90;;;;;;5007260;28;20053;-76
2022/11/15 12:54:56;;;;;;;2.95;2.42;;;12.10;99.90;;;;;;5005556;28;20068;-77
2022/11/15 12:57:32;;;;;;;5.18;3.22;;;12.10;99.90;;;;;;5004501;28;20073;-77
2022/11/15 13:00:14;;;;;;;5.82;3.40;;;12.10;99.90;;;;;;5004317;28;20044;-76
2022/11/15 13:02:41;;;;;;;;;;;12.10;99.90;;;;;;5005666;28;20038;-77
2022/11/15 13:05:18;;;;;;;3.30;2.20;;;12.00;99.90;;;;;;5002163;28;19952;-77
2022/11/15 13:07:44;;;;;;;2.97;2.47;;;12.00;99.90;;;;;;5005048;28;20116;-78
2022/11/15 13:10:12;;;;;;;4.05;2.70;;;12.00;99.90;;;;;;5008030;28;20496;-78